createdAt,value
2018-12-19T00:00:50.158Z,10.00
2018-12-19T00:03:17.751Z,10.57
2018-12-19T00:05:45.424Z,10.20
2018-12-19T00:08:12.976Z,9.80
2018-12-19T00:10:40.548Z,10.47
2018-12-19T00:13:10.097Z,10.30
2018-12-19T00:15:37.656Z,11.30
2018-12-19T00:18:05.216Z,12.20
2018-12-19T00:20:32.803Z,10.17
2018-12-19T00:23:00.365Z,10.17
2018-12-19T00:25:27.945Z,10.47
2018-12-19T00:27:55.488Z,9.33
2018-12-19T00:30:23.060Z,10.57
2018-12-19T00:32:50.618Z,10.47
2018-12-19T00:35:18.189Z,11.20
2018-12-19T00:37:45.756Z,11.07
2018-12-19T00:40:13.413Z,10.70
2018-12-19T00:42:40.956Z,9.50
2018-12-19T00:45:08.536Z,9.37
2018-12-19T00:47:36.083Z,10.17
2018-12-19T00:50:03.924Z,10.83
2018-12-19T00:52:31.481Z,11.50
2018-12-19T00:54:59.185Z,10.93
2018-12-19T00:57:26.745Z,9.60
2018-12-19T00:59:54.325Z,11.93
2018-12-19T01:02:21.877Z,9.40
2018-12-19T01:04:49.448Z,12.33
2018-12-19T01:07:17.000Z,11.30
2018-12-19T01:09:44.581Z,11.50
2018-12-19T01:12:12.135Z,12.80
2018-12-19T01:14:39.712Z,9.70
2018-12-19T01:17:07.264Z,11.07
2018-12-19T01:19:34.851Z,10.60
2018-12-19T01:22:02.403Z,10.60
2018-12-19T01:24:29.980Z,10.63
2018-12-19T01:26:57.533Z,9.83
2018-12-19T01:29:25.109Z,9.60
2018-12-19T01:31:52.671Z,11.93
2018-12-19T01:34:20.252Z,10.90
2018-12-19T01:36:47.863Z,10.63
2018-12-19T01:39:15.488Z,10.63
2018-12-19T01:41:43.063Z,11.77
2018-12-19T01:44:10.610Z,10.67
2018-12-19T01:46:38.198Z,11.43
2018-12-19T01:49:05.756Z,11.50
2018-12-19T01:51:33.335Z,12.00
2018-12-19T01:54:00.892Z,12.60
2018-12-19T01:56:28.473Z,11.40
2018-12-19T01:58:56.036Z,12.03
2018-12-19T02:01:23.604Z,11.27
2018-12-19T02:03:51.156Z,11.77
2018-12-19T02:06:18.729Z,12.07
2018-12-19T02:08:46.296Z,11.47
2018-12-19T02:11:13.873Z,11.33
2018-12-19T02:13:41.424Z,10.67
2018-12-19T02:16:08.996Z,11.53
2018-12-19T02:18:36.562Z,11.00
2018-12-19T02:21:04.136Z,10.80
2018-12-19T02:23:31.702Z,10.53
2018-12-19T02:25:59.343Z,9.57
2018-12-19T02:28:26.896Z,11.77
2018-12-19T02:30:54.472Z,10.47
2018-12-19T02:33:22.028Z,10.60
2018-12-19T02:35:49.608Z,11.20
2018-12-19T02:38:17.159Z,10.70
2018-12-19T02:40:44.740Z,11.33
2018-12-19T02:43:12.292Z,10.13
2018-12-19T02:45:39.877Z,10.40
2018-12-19T02:48:07.436Z,10.47
2018-12-19T02:50:35.004Z,10.40
2018-12-19T02:53:02.560Z,10.23
2018-12-19T02:55:30.142Z,10.60
2018-12-19T02:57:57.705Z,11.03
2018-12-19T03:00:25.273Z,10.23
2018-12-19T03:02:52.833Z,10.50
2018-12-19T03:05:20.417Z,9.73
2018-12-19T03:07:47.976Z,9.90
2018-12-19T03:10:15.539Z,10.80
2018-12-19T03:12:43.092Z,10.60
2018-12-19T03:15:10.645Z,10.23
2018-12-19T03:17:38.214Z,10.00
2018-12-19T03:20:05.773Z,9.47
2018-12-19T03:22:33.345Z,9.63
2018-12-19T03:25:00.895Z,10.13
2018-12-19T03:27:28.481Z,9.87
2018-12-19T03:29:56.049Z,10.80
2018-12-19T03:32:23.621Z,9.87
2018-12-19T03:34:51.185Z,11.50
2018-12-19T03:37:18.769Z,11.10
2018-12-19T03:39:50.281Z,10.43
2018-12-19T03:42:15.985Z,9.90
2018-12-19T03:44:43.546Z,10.10
2018-12-19T03:47:11.130Z,11.00
2018-12-19T03:49:38.956Z,11.97
2018-12-19T03:52:06.543Z,11.47
2018-12-19T03:54:34.113Z,11.40
2018-12-19T03:57:01.965Z,11.40
2018-12-19T03:59:29.526Z,11.40
2018-12-19T04:01:57.108Z,12.33
2018-12-19T04:04:24.669Z,11.90
2018-12-19T04:06:52.245Z,10.73
2018-12-19T04:09:19.801Z,10.73
2018-12-19T04:11:47.368Z,11.60
2018-12-19T04:14:14.921Z,10.20
2018-12-19T04:16:42.505Z,11.30
2018-12-19T04:19:10.060Z,9.90
2018-12-19T04:21:37.680Z,11.23
2018-12-19T04:24:05.581Z,10.67
2018-12-19T04:26:33.149Z,11.57
2018-12-19T04:29:00.700Z,11.30
2018-12-19T04:31:28.272Z,11.20
2018-12-19T04:33:55.839Z,12.10
2018-12-19T04:36:23.420Z,10.53
2018-12-19T04:38:50.982Z,10.13
2018-12-19T04:41:18.572Z,10.53
2018-12-19T04:43:46.134Z,11.03
2018-12-19T04:46:13.704Z,9.33
2018-12-19T04:48:41.252Z,9.70
2018-12-19T04:51:08.803Z,10.27
2018-12-19T04:53:36.380Z,10.40
2018-12-19T04:56:03.933Z,10.60
2018-12-19T04:58:31.504Z,9.20
2018-12-19T05:00:59.065Z,7.90
2018-12-19T05:03:26.632Z,9.57
2018-12-19T05:05:54.180Z,7.90
2018-12-19T05:08:21.748Z,7.17
2018-12-19T05:10:49.300Z,7.70
2018-12-19T05:13:16.874Z,9.23
2018-12-19T05:15:44.419Z,9.10
2018-12-19T05:18:11.998Z,9.50
2018-12-19T05:20:39.560Z,10.93
2018-12-19T05:23:07.142Z,11.27
2018-12-19T05:25:34.694Z,9.27
2018-12-19T05:28:02.273Z,10.80
2018-12-19T05:30:29.828Z,11.53
2018-12-19T05:32:57.405Z,10.30
2018-12-19T05:35:24.983Z,10.07
2018-12-19T05:37:52.556Z,10.17
2018-12-19T05:40:20.126Z,10.10
2018-12-19T05:42:47.700Z,9.07
2018-12-19T05:45:15.252Z,10.23
2018-12-19T05:47:42.825Z,10.77
2018-12-19T05:50:10.641Z,9.70
2018-12-19T05:52:38.221Z,10.10
2018-12-19T05:55:05.909Z,9.63
2018-12-19T05:57:33.552Z,10.10
2018-12-19T06:00:01.104Z,9.63
2018-12-19T06:02:28.676Z,9.87
2018-12-19T06:04:56.249Z,10.17
2018-12-19T06:07:23.858Z,8.80
2018-12-19T06:09:51.508Z,9.10
2018-12-19T06:12:19.081Z,8.83
2018-12-19T06:14:46.632Z,8.97
2018-12-19T06:17:14.205Z,7.80
2018-12-19T06:19:41.757Z,8.07
2018-12-19T06:22:09.338Z,7.40
2018-12-19T06:24:36.883Z,7.77
2018-12-19T06:27:04.441Z,8.33
2018-12-19T06:29:32.025Z,7.67
2018-12-19T06:31:59.574Z,7.90
2018-12-19T06:34:27.155Z,8.90
2018-12-19T06:36:54.709Z,8.77
2018-12-19T06:39:22.285Z,8.90
2018-12-19T06:41:49.896Z,6.93
2018-12-19T06:44:17.481Z,7.93
2018-12-19T06:46:45.032Z,8.80
2018-12-19T06:49:12.617Z,7.53
2018-12-19T06:51:40.164Z,7.40
2018-12-19T06:54:07.737Z,8.20
2018-12-19T06:56:35.288Z,9.00
2018-12-19T06:59:02.861Z,7.63
2018-12-19T07:01:30.416Z,9.87
2018-12-19T07:03:57.997Z,10.37
2018-12-19T07:06:25.556Z,9.40
2018-12-19T07:08:53.296Z,9.50
2018-12-19T07:11:21.216Z,9.17
2018-12-19T07:13:48.789Z,9.83
2018-12-19T07:16:16.350Z,9.40
2018-12-19T07:18:43.938Z,10.57
2018-12-19T07:21:11.496Z,10.07
2018-12-19T07:23:39.432Z,10.07
2018-12-19T07:26:06.981Z,8.80
2018-12-19T07:28:34.559Z,10.17
2018-12-19T07:31:02.115Z,9.30
2018-12-19T07:33:29.690Z,10.10
2018-12-19T07:35:57.256Z,8.80
2018-12-19T07:38:24.837Z,8.90
2018-12-19T07:40:52.388Z,8.70
2018-12-19T07:43:19.960Z,9.90
2018-12-19T07:45:47.513Z,8.80
2018-12-19T07:48:15.081Z,8.37
2018-12-19T07:50:42.636Z,8.53
2018-12-19T07:53:10.658Z,8.97
2018-12-19T07:55:38.910Z,10.03
2018-12-19T07:58:06.461Z,8.73
2018-12-19T08:00:34.100Z,8.80
2018-12-19T08:03:01.648Z,8.80
2018-12-19T08:05:29.224Z,9.27
2018-12-19T08:07:56.781Z,9.30
2018-12-19T08:10:24.816Z,9.90
2018-12-19T08:12:52.360Z,9.63
2018-12-19T08:15:19.938Z,10.00
2018-12-19T08:17:47.484Z,10.20
2018-12-19T08:20:15.126Z,10.17
2018-12-19T08:22:42.679Z,10.23
2018-12-19T08:25:10.260Z,11.03
2018-12-19T08:27:37.809Z,11.20
2018-12-19T08:30:06.848Z,8.93
2018-12-19T08:32:34.405Z,11.47
2018-12-19T08:35:02.073Z,11.80
2018-12-19T08:37:29.619Z,11.20
2018-12-19T08:39:57.209Z,11.20
2018-12-19T08:42:24.765Z,11.90
2018-12-19T08:44:52.342Z,12.50
2018-12-19T08:47:19.893Z,10.80
2018-12-19T08:49:47.491Z,9.87
2018-12-19T08:52:15.135Z,11.93
2018-12-19T08:54:42.709Z,10.70
2018-12-19T08:57:10.256Z,11.43
2018-12-19T08:59:37.820Z,11.03
2018-12-19T09:02:05.373Z,11.63
2018-12-19T09:04:32.948Z,11.40
2018-12-19T09:07:00.506Z,11.57
2018-12-19T09:09:28.124Z,10.90
2018-12-19T09:11:55.761Z,10.90
2018-12-19T09:14:23.460Z,12.23
2018-12-19T09:16:51.009Z,11.30
2018-12-19T09:19:18.585Z,12.50
2018-12-19T09:21:46.137Z,12.47
2018-12-19T09:24:13.709Z,13.07
2018-12-19T09:26:41.261Z,14.80
2018-12-19T09:29:08.812Z,32.63
2018-12-19T09:31:36.395Z,23.30
2018-12-19T09:34:04.024Z,13.80
2018-12-19T09:36:31.619Z,11.73
2018-12-19T09:38:59.165Z,12.20
2018-12-19T09:41:26.749Z,11.80
2018-12-19T09:43:54.291Z,10.10
2018-12-19T09:46:21.860Z,10.30
2018-12-19T09:48:49.409Z,10.67
2018-12-19T09:51:16.994Z,10.73
2018-12-19T09:53:44.556Z,11.43
2018-12-19T09:56:12.134Z,11.87
2018-12-19T09:58:39.688Z,11.10
2018-12-19T10:01:07.265Z,11.20
2018-12-19T10:03:34.820Z,10.93
2018-12-19T10:06:02.381Z,12.37
2018-12-19T10:08:29.931Z,11.83
2018-12-19T10:10:57.496Z,11.70
2018-12-19T10:13:25.052Z,12.60
2018-12-19T10:15:52.623Z,11.97
2018-12-19T10:18:20.172Z,10.43
2018-12-19T10:20:47.745Z,11.63
2018-12-19T10:23:15.296Z,11.90
2018-12-19T10:25:42.869Z,11.43
2018-12-19T10:28:10.429Z,11.70
2018-12-19T10:30:42.668Z,13.23
2018-12-19T10:33:10.220Z,12.43
2018-12-19T10:35:37.792Z,16.43
2018-12-19T10:38:05.347Z,18.03
2018-12-19T10:40:32.931Z,13.53
2018-12-19T10:43:00.480Z,14.67
2018-12-19T10:45:28.056Z,17.53
2018-12-19T10:47:55.601Z,16.13
2018-12-19T10:50:23.270Z,13.47
2018-12-19T10:52:50.830Z,13.83
2018-12-19T10:55:18.408Z,12.70
2018-12-19T10:57:45.963Z,12.50
2018-12-19T11:00:15.482Z,13.57
2018-12-19T11:02:43.052Z,14.57
2018-12-19T11:05:10.613Z,14.30
2018-12-19T11:07:38.201Z,15.27
2018-12-19T11:10:06.141Z,15.67
2018-12-19T11:12:33.787Z,15.47
2018-12-19T11:15:01.344Z,15.40
2018-12-19T11:17:28.917Z,13.73
2018-12-19T11:19:56.554Z,12.83
2018-12-19T11:22:24.136Z,14.53
2018-12-19T11:24:51.688Z,15.20
2018-12-19T11:27:19.256Z,15.03
2018-12-19T11:29:46.814Z,15.07
2018-12-19T11:32:14.392Z,13.80
2018-12-19T11:34:41.947Z,14.83
2018-12-19T11:37:09.529Z,14.40
2018-12-19T11:39:37.081Z,14.17
2018-12-19T11:42:04.663Z,14.03
2018-12-19T11:44:32.215Z,15.30
2018-12-19T11:46:59.794Z,12.80
2018-12-19T11:49:27.361Z,13.67
2018-12-19T11:51:55.065Z,13.73
2018-12-19T11:54:22.648Z,14.30
2018-12-19T11:56:50.224Z,14.23
2018-12-19T11:59:17.777Z,16.27
2018-12-19T12:01:45.352Z,15.40
2018-12-19T12:04:12.905Z,14.50
2018-12-19T12:06:40.489Z,15.20
2018-12-19T12:09:08.046Z,14.87
2018-12-19T12:11:35.629Z,15.20
2018-12-19T12:14:03.258Z,16.70
2018-12-19T12:16:30.832Z,13.70
2018-12-19T12:18:58.385Z,14.10
2018-12-19T12:21:25.965Z,15.10
2018-12-19T12:23:53.519Z,15.57
2018-12-19T12:26:21.087Z,15.90
2018-12-19T12:28:48.644Z,15.40
2018-12-19T12:31:16.192Z,15.40
2018-12-19T12:33:43.772Z,16.10
2018-12-19T12:36:11.330Z,16.57
2018-12-19T12:38:38.901Z,15.33
2018-12-19T12:41:06.448Z,14.90
2018-12-19T12:43:34.031Z,16.60
2018-12-19T12:46:01.581Z,17.20
2018-12-19T12:48:29.157Z,17.47
2018-12-19T12:50:56.708Z,17.07
2018-12-19T12:53:24.279Z,19.10
2018-12-19T12:55:51.830Z,18.37
2018-12-19T12:58:19.404Z,18.07
2018-12-19T13:00:46.972Z,18.10
2018-12-19T13:03:14.536Z,20.87
2018-12-19T13:05:42.098Z,19.70
2018-12-19T13:08:09.679Z,20.57
2018-12-19T13:10:37.242Z,18.50
2018-12-19T13:13:04.952Z,18.43
2018-12-19T13:15:41.048Z,19.50
2018-12-19T13:18:08.621Z,20.10
2018-12-19T13:20:36.173Z,20.47
2018-12-19T13:23:03.744Z,19.07
2018-12-19T13:25:31.307Z,18.27
2018-12-19T13:27:58.953Z,22.30
2018-12-19T13:30:26.512Z,19.17
2018-12-19T13:32:54.080Z,18.37
2018-12-19T13:35:21.633Z,19.97
2018-12-19T13:37:49.210Z,19.60
2018-12-19T13:40:16.761Z,20.13
2018-12-19T13:42:44.340Z,19.33
2018-12-19T13:45:11.892Z,20.93
2018-12-19T13:47:39.525Z,20.70
2018-12-19T13:50:07.217Z,22.40
2018-12-19T13:52:34.797Z,23.20
2018-12-19T13:55:02.349Z,23.47
2018-12-19T13:57:29.920Z,23.73
2018-12-19T13:59:57.469Z,26.07
2018-12-19T14:02:25.048Z,23.70
2018-12-19T14:04:52.600Z,23.27
2018-12-19T14:07:20.386Z,21.77
2018-12-19T14:09:48.028Z,21.60
2018-12-19T14:12:15.580Z,20.70
2018-12-19T14:14:43.160Z,21.20
2018-12-19T14:17:10.712Z,21.67
2018-12-19T14:19:38.284Z,22.17
2018-12-19T14:22:05.909Z,21.00
2018-12-19T14:24:33.485Z,20.50
2018-12-19T14:27:01.032Z,22.83
2018-12-19T14:29:29.485Z,21.13
2018-12-19T14:31:57.046Z,19.00
2018-12-19T14:34:24.637Z,18.53
2018-12-19T14:36:52.224Z,18.77
2018-12-19T14:39:19.901Z,20.30
2018-12-19T14:41:47.448Z,19.33
2018-12-19T14:44:15.021Z,18.47
2018-12-19T14:46:42.573Z,19.23
2018-12-19T14:49:13.899Z,21.73
2018-12-19T14:51:40.786Z,19.33
2018-12-19T14:54:09.398Z,20.13
2018-12-19T14:56:36.949Z,20.03
2018-12-19T14:59:04.592Z,19.20
2018-12-19T15:01:32.157Z,19.67
2018-12-19T15:03:59.757Z,19.40
2018-12-19T15:06:27.304Z,18.10
2018-12-19T15:08:54.878Z,20.33
2018-12-19T15:11:22.429Z,19.97
2018-12-19T15:13:50.022Z,20.83
2018-12-19T15:16:19.532Z,19.87
2018-12-19T15:18:47.119Z,19.60
2018-12-19T15:21:14.676Z,19.43
2018-12-19T15:23:42.243Z,19.73
2018-12-19T15:26:09.868Z,18.07
2018-12-19T15:28:37.466Z,18.10
2018-12-19T15:31:05.028Z,19.73
2018-12-19T15:33:32.608Z,18.00
2018-12-19T15:36:00.396Z,18.07
2018-12-19T15:38:27.964Z,20.70
2018-12-19T15:40:55.515Z,19.50
2018-12-19T15:43:23.069Z,18.90
2018-12-19T15:45:50.645Z,18.83
2018-12-19T15:48:18.205Z,21.30
2018-12-19T15:50:45.788Z,20.33
2018-12-19T15:53:14.358Z,20.90
2018-12-19T15:55:42.000Z,19.60
2018-12-19T15:58:09.557Z,19.80
2018-12-19T16:00:37.132Z,21.70
2018-12-19T16:03:04.697Z,20.00
2018-12-19T16:05:32.361Z,20.27
2018-12-19T16:07:59.948Z,21.03
2018-12-19T16:10:27.516Z,20.17
2018-12-19T16:12:55.069Z,20.10
2018-12-19T16:15:22.654Z,21.50
2018-12-19T16:17:50.214Z,26.70
2018-12-19T16:20:17.792Z,20.37
2018-12-19T16:22:45.336Z,20.50
2018-12-19T16:25:12.908Z,21.73
2018-12-19T16:27:40.460Z,19.43
2018-12-19T16:30:08.305Z,18.77
2018-12-19T16:32:35.852Z,21.10
2018-12-19T16:35:03.484Z,20.80
2018-12-19T16:37:31.038Z,18.00
2018-12-19T16:39:58.608Z,18.40
2018-12-19T16:42:26.176Z,18.80
2018-12-19T16:44:53.750Z,19.30
2018-12-19T16:47:21.340Z,17.70
2018-12-19T16:49:48.913Z,16.77
2018-12-19T16:52:16.465Z,18.40
2018-12-19T16:54:44.048Z,18.80
2018-12-19T16:57:11.685Z,19.13
2018-12-19T16:59:39.280Z,17.57
2018-12-19T17:02:06.905Z,18.57
2018-12-19T17:04:34.465Z,19.77
2018-12-19T17:07:02.041Z,16.70
2018-12-19T17:09:29.588Z,17.83
2018-12-19T17:11:57.151Z,16.87
2018-12-19T17:14:24.718Z,17.37
2018-12-19T17:16:52.293Z,16.33
2018-12-19T17:19:19.857Z,17.90
2018-12-19T17:21:47.428Z,16.27
2018-12-19T17:24:14.981Z,17.47
2018-12-19T17:26:42.573Z,16.83
2018-12-19T17:29:10.121Z,18.30
2018-12-19T17:31:37.689Z,17.10
2018-12-19T17:34:05.244Z,19.23
2018-12-19T17:36:32.812Z,19.27
2018-12-19T17:39:00.368Z,18.00
2018-12-19T17:41:28.036Z,18.00
2018-12-19T17:43:55.693Z,16.73
2018-12-19T17:46:23.292Z,17.67
2018-12-19T17:48:50.836Z,15.97
2018-12-19T17:51:18.483Z,16.40
2018-12-19T17:53:46.036Z,17.40
2018-12-19T17:56:13.637Z,16.37
2018-12-19T17:58:41.189Z,16.87
2018-12-19T18:01:08.765Z,18.30
2018-12-19T18:03:36.312Z,16.73
2018-12-19T18:06:03.889Z,17.47
2018-12-19T18:08:32.559Z,17.67
2018-12-19T18:11:00.161Z,17.20
2018-12-19T18:13:27.717Z,19.33
2018-12-19T18:15:55.281Z,18.50
2018-12-19T18:18:22.906Z,18.70
2018-12-19T18:20:50.481Z,19.43
2018-12-19T18:23:18.028Z,19.60
2018-12-19T18:25:45.600Z,21.30
2018-12-19T18:28:13.399Z,23.07
2018-12-19T18:30:40.969Z,25.10
2018-12-19T18:33:08.533Z,23.70
2018-12-19T18:35:36.084Z,22.70
2018-12-19T18:38:03.679Z,23.83
2018-12-19T18:40:31.240Z,25.27
2018-12-19T18:42:58.808Z,18.90
2018-12-19T18:45:26.385Z,20.23
2018-12-19T18:47:53.958Z,18.13
2018-12-19T18:50:21.533Z,15.00
2018-12-19T18:52:49.121Z,15.23
2018-12-19T18:55:17.274Z,14.87
2018-12-19T18:57:44.853Z,13.70
2018-12-19T19:00:14.416Z,13.70
2018-12-19T19:02:42.080Z,13.37
2018-12-19T19:05:09.677Z,13.03
2018-12-19T19:07:37.420Z,15.33
2018-12-19T19:10:05.716Z,12.70
2018-12-19T19:12:33.376Z,12.77
2018-12-19T19:15:00.956Z,11.83
2018-12-19T19:17:28.524Z,11.63
2018-12-19T19:19:56.087Z,12.97
2018-12-19T19:22:23.669Z,11.27
2018-12-19T19:24:51.320Z,11.10
2018-12-19T19:27:18.892Z,10.37
2018-12-19T19:29:46.440Z,10.03
2018-12-19T19:32:14.016Z,11.83
2018-12-19T19:34:41.768Z,11.37
2018-12-19T19:37:09.337Z,11.23
2018-12-19T19:39:36.884Z,10.63
2018-12-19T19:42:04.562Z,11.10
2018-12-19T19:44:32.193Z,11.20
2018-12-19T19:47:00.051Z,11.73
2018-12-19T19:49:27.637Z,11.30
2018-12-19T19:51:55.207Z,10.60
2018-12-19T19:54:22.833Z,10.30
2018-12-19T19:56:50.413Z,10.30
2018-12-19T19:59:18.016Z,10.60
2018-12-19T20:01:45.631Z,10.00
2018-12-19T20:04:13.189Z,10.10
2018-12-19T20:06:40.736Z,11.70
2018-12-19T20:09:08.311Z,15.57
2018-12-19T20:11:35.976Z,17.87
2018-12-19T20:14:03.621Z,14.47
2018-12-19T20:16:33.135Z,16.50
2018-12-19T20:19:00.732Z,17.00
2018-12-19T20:21:28.288Z,15.73
2018-12-19T20:23:55.892Z,14.73
2018-12-19T20:26:23.460Z,14.10
2018-12-19T20:28:51.155Z,15.20
2018-12-19T20:31:18.724Z,10.67
2018-12-19T20:36:44.380Z,12.20
2018-12-19T20:39:11.988Z,9.90
2018-12-19T20:41:39.540Z,8.50
2018-12-19T20:44:07.450Z,8.10
2018-12-19T20:46:35.024Z,6.50
2018-12-19T20:49:02.605Z,7.60
2018-12-19T20:51:30.164Z,7.70
2018-12-19T20:53:57.835Z,6.60
2018-12-19T20:56:25.439Z,7.33
2018-12-19T20:58:53.152Z,7.63
2018-12-19T21:01:20.723Z,7.40
2018-12-19T21:03:48.392Z,6.60
2018-12-19T21:06:15.973Z,6.00
2018-12-19T21:08:43.539Z,5.87
2018-12-19T21:11:11.227Z,6.40
2018-12-19T21:13:38.862Z,5.87
2018-12-19T21:16:06.400Z,6.13
2018-12-19T21:18:39.613Z,5.33
2018-12-19T21:21:07.156Z,5.27
2018-12-19T21:23:34.793Z,5.87
2018-12-19T21:26:02.348Z,5.70
2018-12-19T21:28:29.912Z,5.50
2018-12-19T21:30:57.456Z,5.50
2018-12-19T21:33:25.062Z,6.20
2018-12-19T21:35:52.654Z,4.77
2018-12-19T21:38:20.318Z,5.13
2018-12-19T21:40:47.887Z,5.43
2018-12-19T21:43:15.484Z,5.20
2018-12-19T21:45:43.136Z,6.00
2018-12-19T21:48:10.702Z,5.80
2018-12-19T21:50:38.291Z,6.20
2018-12-19T21:53:05.872Z,6.50
2018-12-19T21:55:33.567Z,6.37
2018-12-19T21:58:01.201Z,7.53
2018-12-19T22:00:30.790Z,7.23
2018-12-19T22:03:00.404Z,6.60
2018-12-19T22:05:27.959Z,8.70
2018-12-19T22:07:55.645Z,8.27
2018-12-19T22:10:23.338Z,6.57
2018-12-19T22:12:50.953Z,5.53
2018-12-19T22:15:18.535Z,4.97
2018-12-19T22:17:47.005Z,5.83
2018-12-19T22:20:14.577Z,8.87
2018-12-19T22:22:42.229Z,9.87
2018-12-19T22:25:09.888Z,8.03
2018-12-19T22:27:37.487Z,7.50
2018-12-19T22:30:06.094Z,7.63
2018-12-19T22:32:33.632Z,8.60
2018-12-19T22:35:01.213Z,7.63
2018-12-19T22:37:28.955Z,8.70
2018-12-19T22:39:56.616Z,11.23
2018-12-19T22:42:24.281Z,11.37
2018-12-19T22:44:51.853Z,8.70
2018-12-19T22:47:19.428Z,10.60
2018-12-19T22:49:47.114Z,10.37
2018-12-19T22:52:14.672Z,8.60
2018-12-19T22:54:42.254Z,8.20
2018-12-19T22:57:09.882Z,7.67
2018-12-19T22:59:37.512Z,8.00
2018-12-19T23:05:09.817Z,7.80
2018-12-19T23:07:37.825Z,7.70
2018-12-19T23:10:05.956Z,8.27
2018-12-19T23:12:33.514Z,8.00
2018-12-19T23:15:01.396Z,8.53
2018-12-19T23:17:35.348Z,8.20
2018-12-19T23:20:04.196Z,8.60
2018-12-19T23:22:32.005Z,9.77
2018-12-19T23:24:59.648Z,10.33
2018-12-19T23:27:27.206Z,10.23
2018-12-19T23:29:54.783Z,9.47
2018-12-19T23:32:28.349Z,9.83
2018-12-19T23:34:56.509Z,9.07
2018-12-19T23:37:24.109Z,9.00
2018-12-19T23:39:51.790Z,11.00
2018-12-19T23:42:19.656Z,9.00
2018-12-19T23:44:47.236Z,7.90
2018-12-19T23:50:12.942Z,6.80
2018-12-19T23:52:42.100Z,7.93
2018-12-19T23:55:09.729Z,7.63
2018-12-19T23:57:37.516Z,8.10
